Time;durP1;ratioP1;P1;durP2;ratioP2;P2;SDS_P1;SDS_P2;PMS_P1;PMS_P2;Temp;Humidity;BMP_temperature;BMP_pressure;BME280_temperature;BME280_humidity;BME280_pressure;Samples;Min_cycle;Max_cycle;Signal;HPM_P1;HPM_P2
2022/11/17 00:00:28;;;;;;;20.25;12.25;;;;;;;8.15;86.83;95429.69;5113339;28;20040;-61
2022/11/17 00:02:57;;;;;;;20.30;12.85;;;;;;;8.13;87.26;95421.09;5113383;28;20501;-61
2022/11/17 00:05:24;;;;;;;19.63;12.05;;;;;;;8.13;87.46;95413.28;5113371;28;20050;-61
2022/11/17 00:07:52;;;;;;;26.85;13.13;;;;;;;8.12;87.49;95408.19;5113327;28;20446;-61
2022/11/17 00:10:19;;;;;;;20.65;12.85;;;;;;;8.14;87.56;95403.72;5113290;28;20047;-61
2022/11/17 00:15:30;;;;;;;22.45;11.63;;;;;;;8.24;88.17;95407.59;5113425;28;20538;-61
2022/11/17 00:23:45;;;;;;;23.52;12.32;;;;;;;8.23;87.32;95418.94;5113202;28;20059;-61
2022/11/17 00:26:13;;;;;;;27.17;13.63;;;;;;;8.28;87.45;95424.75;5113114;28;20147;-61
2022/11/17 00:28:40;;;;;;;23.70;12.27;;;;;;;8.31;87.36;95421.19;5114673;28;20552;-61
2022/11/17 00:34:05;;;;;;;18.85;11.43;;;;;;;8.29;87.30;95415.19;5117365;28;20058;-62
2022/11/17 00:36:35;;;;;;;23.90;13.00;;;;;;;8.32;87.50;95413.31;5116917;28;20059;-61
2022/11/17 00:39:02;;;;;;;25.92;13.75;;;;;;;8.34;87.29;95408.84;5116610;28;20040;-61
2022/11/17 00:41:29;;;;;;;22.00;12.10;;;;;;;8.34;88.36;95397.59;5116812;28;20142;-62
2022/11/17 00:43:56;;;;;;;19.90;11.98;;;;;;;8.34;88.45;95395.00;5116803;28;20097;-62
2022/11/17 00:46:23;;;;;;;21.58;12.43;;;;;;;8.29;88.54;95389.13;5116789;28;20492;-62
2022/11/17 00:48:50;;;;;;;24.48;13.80;;;;;;;8.34;88.68;95380.19;5116631;28;20484;-61
2022/11/17 00:51:19;;;;;;;20.70;12.05;;;;;;;8.33;88.53;95383.72;5116565;28;20093;-62
2022/11/17 00:53:47;;;;;;;24.48;13.10;;;;;;;8.37;88.59;95379.19;5116491;28;20047;-61
2022/11/17 00:56:14;;;;;;;25.67;13.85;;;;;;;8.41;88.92;95380.75;5116511;28;20054;-62
2022/11/17 00:58:41;;;;;;;24.27;12.23;;;;;;;8.45;88.53;95371.00;5116784;28;20085;-62
2022/11/17 01:01:09;;;;;;;17.27;11.13;;;;;;;8.44;88.42;95370.19;5116578;28;20477;-61
2022/11/17 01:03:36;;;;;;;24.35;12.68;;;;;;;8.49;88.55;95371.72;5116406;28;20047;-62
2022/11/17 01:06:05;;;;;;;21.02;11.50;;;;;;;8.52;89.04;95364.56;5116438;28;20101;-61
2022/11/17 01:08:34;;;;;;;20.65;11.30;;;;;;;8.56;89.09;95368.78;5116383;27;20097;-61
2022/11/17 01:11:09;;;;;;;21.00;11.57;;;;;;;8.55;89.28;95369.66;5116208;27;20511;-61
2022/11/17 01:13:37;;;;;;;20.67;11.68;;;;;;;8.58;88.84;95369.53;5116400;28;20062;-61
2022/11/17 01:16:07;;;;;;;17.75;11.45;;;;;;;8.59;88.66;95360.81;5116081;28;20052;-62
2022/11/17 01:18:35;;;;;;;22.25;11.57;;;;;;;8.61;88.51;95363.31;5116046;28;20131;-62
2022/11/17 01:21:08;;;;;;;22.23;12.38;;;;;;;8.62;88.25;95361.56;5116192;28;20044;-62
2022/11/17 01:23:37;;;;;;;21.92;12.23;;;;;;;8.64;88.13;95357.13;5116003;28;20039;-62
2022/11/17 01:26:07;;;;;;;21.27;12.60;;;;;;;8.53;88.05;95352.38;5116283;28;20211;-61
2022/11/17 01:28:35;;;;;;;24.75;12.75;;;;;;;8.45;88.27;95342.34;5116281;28;20150;-61
2022/11/17 01:31:05;;;;;;;21.63;12.00;;;;;;;8.43;88.38;95334.59;5115729;28;20066;-62
2022/11/17 01:33:32;;;;;;;22.23;12.93;;;;;;;8.40;88.49;95333.91;5115950;28;20044;-62
2022/11/17 01:36:03;;;;;;;23.58;12.98;;;;;;;8.45;88.74;95339.72;5115829;28;20047;-62
2022/11/17 01:38:30;;;;;;;22.05;12.65;;;;;;;8.47;88.79;95330.09;5115632;28;20090;-62
2022/11/17 01:41:01;;;;;;;25.20;12.27;;;;;;;8.52;88.38;95325.47;5115600;28;20048;-61
2022/11/17 01:43:39;;;;;;;20.75;12.10;;;;;;;8.48;88.02;95316.13;5115758;28;20473;-61
2022/11/17 01:46:15;;;;;;;19.95;10.70;;;;;;;8.51;88.17;95325.56;5115737;28;20055;-61
2022/11/17 01:48:44;;;;;;;21.58;11.45;;;;;;;8.51;88.45;95321.19;5115601;28;20397;-62
2022/11/17 01:51:13;;;;;;;21.02;11.98;;;;;;;8.47;88.40;95311.84;5115513;28;20105;-62
2022/11/17 01:53:41;;;;;;;19.00;10.80;;;;;;;8.53;88.27;95315.91;5115322;28;20066;-62
2022/11/17 01:56:14;;;;;;;15.82;10.02;;;;;;;8.54;88.00;95302.81;5115436;28;20043;-62
2022/11/17 01:58:46;;;;;;;16.77;10.85;;;;;;;8.53;87.32;95302.88;5115325;28;20092;-62
2022/11/17 02:01:13;;;;;;;24.95;11.73;;;;;;;8.53;87.08;95306.34;5115246;28;20043;-62
2022/11/17 02:03:44;;;;;;;22.65;11.45;;;;;;;8.53;86.81;95306.34;5115450;28;20123;-62
2022/11/17 02:06:15;;;;;;;16.95;9.80;;;;;;;8.47;86.50;95296.22;5115143;28;20557;-62
2022/11/17 02:08:46;;;;;;;16.00;9.77;;;;;;;8.43;86.12;95300.72;5115271;28;20053;-62
2022/11/17 02:11:18;;;;;;;15.70;9.60;;;;;;;8.36;86.11;95301.94;5115124;28;20139;-62
2022/11/17 02:13:45;;;;;;;14.75;8.60;;;;;;;8.33;85.61;95308.16;5115070;28;20104;-61
2022/11/17 02:16:17;;;;;;;12.40;8.00;;;;;;;8.30;85.68;95303.09;5114904;28;20134;-62
2022/11/17 02:18:46;;;;;;;17.63;9.05;;;;;;;8.27;84.93;95305.84;5115150;28;20126;-62
2022/11/17 02:21:33;;;;;;;13.73;8.60;;;;;;;8.24;84.99;95298.16;5114833;28;20052;-61
2022/11/17 02:24:19;;;;;;;13.30;7.28;;;;;;;8.18;84.91;95290.66;5114802;28;20047;-62
2022/11/17 02:27:29;;;;;;;19.25;8.45;;;;;;;8.11;85.73;95295.31;5114860;28;20138;-61
2022/11/17 02:30:02;;;;;;;17.20;7.55;;;;;;;8.11;85.63;95295.31;5114640;28;20050;-61
2022/11/17 02:32:42;;;;;;;11.88;6.72;;;;;;;8.12;85.38;95298.78;5114772;28;20086;-61
2022/11/17 02:35:16;;;;;;;9.65;7.15;;;;;;;8.08;85.81;95298.94;5114682;28;20043;-61
2022/11/17 02:37:52;;;;;;;10.20;6.15;;;;;;;8.00;86.37;95300.22;5114551;28;20055;-61
2022/11/17 02:40:25;;;;;;;11.38;5.70;;;;;;;7.96;86.66;95289.09;5114420;28;20044;-62
2022/11/17 02:45:51;;;;;;;7.45;4.85;;;;;;;7.89;86.46;95291.13;5114607;28;20100;-61
2022/11/17 02:48:24;;;;;;;10.07;5.72;;;;;;;7.92;86.26;95298.78;5114423;28;20130;-61
2022/11/17 02:50:54;;;;;;;10.07;5.82;;;;;;;7.87;86.19;95303.38;5113500;28;20047;-61
2022/11/17 02:53:24;;;;;;;9.15;5.38;;;;;;;7.87;86.34;95303.38;5114380;28;20131;-61
2022/11/17 02:55:52;;;;;;;6.88;5.05;;;;;;;7.81;86.48;95303.66;5114440;28;20050;-61
2022/11/17 02:58:19;;;;;;;8.00;4.47;;;;;;;7.81;86.57;95304.53;5114224;28;20047;-61
2022/11/17 03:01:01;;;;;;;11.63;6.88;;;;;;;7.74;87.62;95310.94;5114148;28;20426;-61
2022/11/17 03:03:41;;;;;;;9.25;5.28;;;;;;;7.75;87.73;95311.75;5114151;28;20095;-62
2022/11/17 03:06:18;;;;;;;7.65;4.95;;;;;;;7.66;87.18;95302.63;5114103;28;20093;-61
2022/11/17 03:08:50;;;;;;;6.22;4.28;;;;;;;7.62;86.97;95299.34;5113951;28;20047;-61
2022/11/17 03:11:24;;;;;;;6.90;3.72;;;;;;;7.58;86.94;95293.41;5113976;28;20051;-62
2022/11/17 03:14:01;;;;;;;6.05;3.83;;;;;;;7.58;86.79;95287.34;5114152;28;20046;-61
2022/11/17 03:16:35;;;;;;;6.13;4.30;;;;;;;7.55;87.28;95283.13;5113908;28;20044;-62
2022/11/17 03:19:10;;;;;;;5.45;3.97;;;;;;;7.61;87.71;95287.22;5113850;28;20043;-62
2022/11/17 03:21:42;;;;;;;6.22;4.20;;;;;;;7.64;87.93;95283.63;5113893;28;20076;-61
2022/11/17 03:24:15;;;;;;;5.35;4.07;;;;;;;7.67;88.19;95278.25;5113625;28;20078;-62
2022/11/17 03:26:47;;;;;;;6.45;3.50;;;;;;;7.65;88.48;95260.13;5113733;28;20112;-62
2022/11/17 03:29:18;;;;;;;6.00;4.05;;;;;;;7.68;88.73;95262.56;5113711;28;20075;-61
2022/11/17 03:31:50;;;;;;;12.90;5.60;;;;;;;7.71;89.00;95264.22;5113675;28;20059;-62
2022/11/17 03:34:22;;;;;;;10.88;6.55;;;;;;;7.73;90.57;95264.16;5113743;28;20055;-61
2022/11/17 03:36:53;;;;;;;12.48;6.18;;;;;;;7.80;91.90;95255.94;5113764;28;20100;-62
2022/11/17 03:39:26;;;;;;;8.00;5.10;;;;;;;7.84;92.19;95254.91;5113476;28;20043;-61
2022/11/17 03:41:58;;;;;;;7.05;5.07;;;;;;;7.91;91.71;95244.19;5113850;28;20139;-61
2022/11/17 03:44:29;;;;;;;7.25;4.82;;;;;;;7.90;91.01;95243.34;5113792;28;20043;-61
2022/11/17 03:47:02;;;;;;;8.30;4.10;;;;;;;7.91;90.31;95245.03;5113838;28;20083;-61
2022/11/17 03:49:38;;;;;;;4.55;3.53;;;;;;;7.91;89.78;95244.19;5113489;28;20059;-61
2022/11/17 03:52:05;;;;;;;4.78;3.42;;;;;;;7.91;89.65;95247.63;5113400;28;20062;-61
2022/11/17 03:54:33;;;;;;;3.65;3.17;;;;;;;7.94;89.25;95238.81;5113472;28;20086;-61
2022/11/17 03:57:06;;;;;;;6.22;3.70;;;;;;;7.95;88.74;95240.53;5113473;28;20051;-62
2022/11/17 03:59:41;;;;;;;6.32;3.78;;;;;;;7.95;88.27;95232.72;5113430;28;20043;-62
2022/11/17 04:02:13;;;;;;;6.63;3.58;;;;;;;7.91;87.52;95228.56;5114236;28;20047;-62
2022/11/17 04:07:26;;;;;;;4.70;3.50;;;;;;;7.79;87.18;95240.41;5117709;28;20058;-61
2022/11/17 04:09:54;;;;;;;7.63;3.30;;;;;;;7.77;87.10;95250.06;5117460;28;20462;-61
2022/11/17 04:17:52;;;;;;;5.18;3.03;;;;;;;7.55;85.59;95245.84;5117781;28;20051;-62
2022/11/17 04:20:23;;;;;;;7.63;3.88;;;;;;;7.51;85.67;95239.09;5117317;28;20058;-62
2022/11/17 04:23:05;;;;;;;4.35;3.85;;;;;;;7.51;85.72;95249.50;5117213;27;20086;-62
2022/11/17 04:28:36;;;;;;;3.60;2.85;;;;;;;7.52;85.73;95252.03;5117462;28;20166;-61
2022/11/17 04:31:06;;;;;;;4.32;3.55;;;;;;;7.52;85.91;95246.00;5117286;28;20052;-61
2022/11/17 04:33:35;;;;;;;6.80;3.65;;;;;;;7.49;86.39;95246.97;5117086;28;20061;-61
2022/11/17 04:36:03;;;;;;;6.93;4.28;;;;;;;7.50;87.22;95243.50;5117109;27;20043;-62
2022/11/17 04:38:30;;;;;;;7.10;4.03;;;;;;;7.46;87.25;95250.59;5116962;28;20054;-61
2022/11/17 04:43:47;;;;;;;7.82;4.35;;;;;;;7.54;88.06;95241.56;5117130;28;20063;-61
2022/11/17 04:46:15;;;;;;;5.47;3.65;;;;;;;7.53;87.72;95242.50;5116818;28;20097;-61
2022/11/17 04:48:44;;;;;;;4.68;2.65;;;;;;;7.45;87.79;95233.28;5116722;28;20047;-61
2022/11/17 04:51:11;;;;;;;5.88;2.58;;;;;;;7.45;88.05;95233.28;5116595;28;20110;-61
2022/11/17 04:53:39;;;;;;;4.07;2.83;;;;;;;7.45;87.91;95220.28;5116858;28;20121;-61
2022/11/17 04:56:07;;;;;;;5.38;4.05;;;;;;;7.45;87.99;95222.03;5116460;28;20079;-62
2022/11/17 04:58:34;;;;;;;4.32;3.58;;;;;;;7.48;87.50;95218.44;5116558;28;20048;-62
2022/11/17 05:01:12;;;;;;;4.22;2.85;;;;;;;7.43;87.66;95216.91;5116511;28;20056;-61
2022/11/17 05:03:42;;;;;;;3.67;3.10;;;;;;;7.42;87.37;95223.03;5116491;28;20047;-61
2022/11/17 05:06:12;;;;;;;3.10;2.13;;;;;;;7.47;87.37;95228.00;5116476;28;20083;-61
2022/11/17 05:08:40;;;;;;;7.20;3.45;;;;;;;7.48;87.56;95227.09;5116529;28;20543;-61
2022/11/17 05:13:53;;;;;;;5.35;2.75;;;;;;;7.45;88.09;95233.28;5115571;28;20059;-61
2022/11/17 05:19:07;;;;;;;4.75;2.72;;;;;;;7.55;88.33;95223.28;5116392;28;20461;-61
2022/11/17 05:21:36;;;;;;;7.38;3.55;;;;;;;7.61;88.33;95234.34;5116223;28;20556;-61
2022/11/17 05:24:02;;;;;;;10.63;3.22;;;;;;;7.66;88.14;95222.78;5116147;28;20058;-61
2022/11/17 05:26:32;;;;;;;3.45;2.88;;;;;;;7.70;87.47;95226.91;5116258;28;20043;-61
2022/11/17 05:29:00;;;;;;;4.18;3.13;;;;;;;7.68;87.96;95227.91;5116012;28;20416;-61
2022/11/17 05:31:29;;;;;;;5.35;3.60;;;;;;;7.74;87.81;95224.19;5115884;28;20052;-61
2022/11/17 05:33:57;;;;;;;4.18;2.78;;;;;;;7.77;87.38;95201.44;5115823;28;20054;-61
2022/11/17 05:36:26;;;;;;;4.95;3.20;;;;;;;7.78;87.68;95207.50;5115874;28;20051;-61
2022/11/17 05:38:55;;;;;;;5.47;3.25;;;;;;;7.81;88.30;95196.94;5115533;28;20126;-61
2022/11/17 05:41:24;;;;;;;4.70;3.20;;;;;;;7.87;88.22;95193.19;5115639;28;20048;-61
2022/11/17 05:43:55;;;;;;;5.38;3.25;;;;;;;7.93;88.71;95204.16;5115607;28;20093;-61
2022/11/17 05:46:23;;;;;;;6.03;3.20;;;;;;;8.02;89.42;95199.41;5115646;28;20405;-61
2022/11/17 05:48:52;;;;;;;6.47;3.28;;;;;;;8.11;89.54;95201.56;5115610;28;20044;-61
2022/11/17 05:51:21;;;;;;;5.05;3.58;;;;;;;8.24;89.66;95208.78;5115521;28;20190;-61
2022/11/17 05:53:49;;;;;;;7.60;4.35;;;;;;;8.42;89.90;95204.38;5115737;28;20073;-61
2022/11/17 05:56:31;;;;;;;4.97;3.70;;;;;;;8.69;89.41;95207.38;5115328;28;20059;-61
2022/11/17 05:59:07;;;;;;;7.22;3.92;;;;;;;8.79;88.13;95207.72;5115351;28;20043;-61
2022/11/17 06:01:37;;;;;;;5.22;3.80;;;;;;;8.82;87.68;95206.75;5115393;28;20067;-61
2022/11/17 06:04:05;;;;;;;5.57;3.95;;;;;;;8.81;87.04;95211.09;5115213;28;20130;-62
2022/11/17 06:06:35;;;;;;;5.68;3.45;;;;;;;8.85;86.86;95207.41;5115402;28;20112;-62
2022/11/17 06:09:02;;;;;;;6.05;4.20;;;;;;;8.88;86.67;95209.00;5115330;28;20051;-62
2022/11/17 06:11:31;;;;;;;4.38;3.42;;;;;;;8.91;86.77;95214.06;5114982;28;20053;-61
2022/11/17 06:13:58;;;;;;;4.97;3.20;;;;;;;8.96;86.43;95213.81;5115087;28;20443;-61
2022/11/17 06:16:29;;;;;;;4.32;3.10;;;;;;;9.00;86.32;95223.16;5114967;28;20096;-61
2022/11/17 06:19:03;;;;;;;5.18;4.03;;;;;;;9.06;86.00;95222.03;5114879;28;20089;-61
2022/11/17 06:21:31;;;;;;;4.97;3.22;;;;;;;9.11;85.86;95227.81;5114813;28;20126;-61
2022/11/17 06:24:00;;;;;;;5.65;3.63;;;;;;;9.18;86.09;95220.53;5114776;28;20508;-62
2022/11/17 06:26:27;;;;;;;8.65;3.63;;;;;;;9.21;86.07;95212.50;5114803;28;20050;-61
2022/11/17 06:28:57;;;;;;;8.07;4.70;;;;;;;9.22;85.89;95214.22;5114730;28;20409;-62
2022/11/17 06:31:27;;;;;;;9.25;5.28;;;;;;;9.28;86.41;95202.59;5114835;28;20083;-62
2022/11/17 06:33:54;;;;;;;8.32;5.25;;;;;;;9.44;87.05;95206.06;5114698;28;20515;-61
2022/11/17 06:36:22;;;;;;;7.13;4.60;;;;;;;9.46;86.20;95195.53;5114839;28;20130;-62
2022/11/17 06:38:49;;;;;;;7.05;4.50;;;;;;;9.40;86.78;95186.28;5114346;28;20047;-62
2022/11/17 06:41:17;;;;;;;4.30;3.90;;;;;;;9.43;87.69;95183.50;5114807;28;20101;-61
2022/11/17 06:43:44;;;;;;;7.03;4.68;;;;;;;9.49;88.09;95192.75;5114653;28;20127;-61
2022/11/17 06:46:14;;;;;;;6.40;4.90;;;;;;;9.59;88.38;95193.94;5114507;28;20105;-62
2022/11/17 06:48:41;;;;;;;7.63;4.20;;;;;;;9.70;88.57;95201.13;5114505;28;20507;-62
2022/11/17 06:51:09;;;;;;;8.82;5.80;;;;;;;9.81;88.67;95207.56;5114386;28;20477;-62
2022/11/17 06:53:36;;;;;;;10.90;6.05;;;;;;;9.87;88.43;95215.03;5114486;28;20052;-62
2022/11/17 06:56:06;;;;;;;10.05;6.45;;;;;;;9.94;88.20;95212.91;5114227;28;20087;-61
2022/11/17 06:58:34;;;;;;;10.23;6.20;;;;;;;9.95;88.18;95209.38;5114268;28;20098;-62
2022/11/17 07:01:03;;;;;;;7.70;6.10;;;;;;;10.00;87.88;95209.97;5114136;28;20293;-61
2022/11/17 07:03:34;;;;;;;10.63;6.30;;;;;;;10.06;87.72;95212.19;5114227;28;20047;-62
2022/11/17 07:06:02;;;;;;;9.70;6.15;;;;;;;10.14;87.34;95209.16;5114404;28;20427;-62
2022/11/17 07:08:29;;;;;;;8.35;6.15;;;;;;;10.18;87.16;95202.81;5114178;28;20120;-62
2022/11/17 07:11:02;;;;;;;8.10;5.53;;;;;;;10.23;87.26;95207.78;5113995;28;20071;-61
2022/11/17 07:13:29;;;;;;;11.18;7.43;;;;;;;10.30;87.18;95205.66;5114065;28;20079;-62
2022/11/17 07:16:03;;;;;;;14.18;6.88;;;;;;;10.32;87.51;95201.16;5114110;28;20086;-62
2022/11/17 07:18:32;;;;;;;14.05;7.93;;;;;;;10.39;87.30;95204.28;5114051;28;20043;-61
2022/11/17 07:21:03;;;;;;;11.95;7.70;;;;;;;10.42;87.06;95196.25;5113792;28;20059;-61
2022/11/17 07:23:31;;;;;;;12.00;7.70;;;;;;;10.47;86.94;95195.09;5113872;28;20071;-62
2022/11/17 07:25:58;;;;;;;11.88;7.30;;;;;;;10.52;86.51;95199.19;5113911;28;20100;-61
2022/11/17 07:28:27;;;;;;;13.15;7.40;;;;;;;10.59;86.37;95203.13;5113879;28;20075;-61
2022/11/17 07:30:54;;;;;;;12.55;6.50;;;;;;;10.58;85.91;95193.59;5113668;28;20047;-62
2022/11/17 07:33:22;;;;;;;13.05;7.00;;;;;;;10.61;85.53;95191.66;5113854;28;20048;-61
2022/11/17 07:35:51;;;;;;;11.82;7.32;;;;;;;10.57;85.70;95184.91;5113597;28;20051;-62
2022/11/17 07:38:18;;;;;;;8.95;6.57;;;;;;;10.68;85.44;95194.75;5113229;28;20051;-62
2022/11/17 07:40:46;;;;;;;12.52;7.53;;;;;;;10.73;85.50;95194.47;5113521;28;20493;-61
2022/11/17 07:43:13;;;;;;;13.05;7.88;;;;;;;10.72;85.41;95193.63;5113677;28;20105;-62
2022/11/17 07:45:40;;;;;;;10.95;7.60;;;;;;;10.76;85.34;95186.44;5113633;28;20465;-61
2022/11/17 07:48:07;;;;;;;10.48;7.05;;;;;;;10.77;85.66;95190.72;5113528;28;20039;-61
2022/11/17 07:50:35;;;;;;;13.18;7.50;;;;;;;10.79;85.86;95181.03;5113504;28;20051;-62
2022/11/17 07:53:04;;;;;;;11.10;7.68;;;;;;;10.80;85.84;95187.06;5113367;28;20056;-62
2022/11/17 07:55:31;;;;;;;11.38;7.20;;;;;;;10.79;85.70;95181.03;5113510;28;20043;-62
2022/11/17 07:57:59;;;;;;;11.38;6.90;;;;;;;10.81;85.62;95173.91;5113388;28;20054;-61
2022/11/17 08:00:28;;;;;;;11.93;7.28;;;;;;;10.80;85.67;95176.63;5113335;28;20142;-62
2022/11/17 08:02:55;;;;;;;15.98;9.00;;;;;;;10.80;85.99;95180.09;5113444;28;20539;-61
2022/11/17 08:05:23;;;;;;;13.98;8.60;;;;;;;10.85;86.10;95185.03;5113327;28;20052;-61
2022/11/17 08:07:55;;;;;;;15.43;7.07;;;;;;;10.76;86.66;95168.13;5113515;28;20043;-62
2022/11/17 08:10:25;;;;;;;10.98;7.10;;;;;;;10.79;86.95;95175.78;5113412;28;20397;-62
2022/11/17 08:12:53;;;;;;;13.13;6.88;;;;;;;10.82;87.38;95177.38;5113252;28;20104;-62
2022/11/17 08:15:21;;;;;;;10.52;6.80;;;;;;;10.83;87.95;95165.97;5113298;28;20075;-61
2022/11/17 08:17:53;;;;;;;11.43;7.10;;;;;;;10.86;88.54;95171.00;5113432;28;20044;-61
2022/11/17 08:20:21;;;;;;;13.85;6.50;;;;;;;10.87;88.86;95191.84;5113336;28;20401;-62
2022/11/17 08:22:50;;;;;;;12.02;7.18;;;;;;;10.91;88.92;95204.75;5113394;28;20054;-62
2022/11/17 08:25:18;;;;;;;12.63;8.40;;;;;;;10.97;89.19;95217.47;5113318;28;20054;-62
2022/11/17 08:27:47;;;;;;;12.45;7.60;;;;;;;10.98;89.23;95213.91;5113149;28;20048;-62
2022/11/17 08:30:15;;;;;;;10.35;7.63;;;;;;;10.95;89.87;95208.84;5113330;28;20054;-61
2022/11/17 08:32:48;;;;;;;15.38;8.20;;;;;;;10.94;90.08;95204.56;5113100;28;20404;-61
2022/11/17 08:35:16;;;;;;;11.43;7.65;;;;;;;10.94;90.11;95205.41;5113225;28;20100;-61
2022/11/17 08:37:43;;;;;;;13.38;7.72;;;;;;;10.97;89.91;95207.84;5113150;28;20054;-61
2022/11/17 08:40:12;;;;;;;10.65;7.22;;;;;;;11.01;89.61;95216.34;5112838;28;20134;-62
2022/11/17 08:42:39;;;;;;;15.00;8.38;;;;;;;11.04;89.37;95216.16;5113235;28;20075;-61
2022/11/17 08:45:09;;;;;;;18.88;10.95;;;;;;;11.01;89.36;95208.50;5113066;28;20489;-61
2022/11/17 08:47:37;;;;;;;17.23;11.02;;;;;;;11.06;89.35;95227.38;5113085;28;20055;-62
2022/11/17 08:50:05;;;;;;;19.98;11.88;;;;;;;11.09;89.50;95232.44;5114976;28;20489;-61
2022/11/17 08:52:32;;;;;;;15.50;10.20;;;;;;;11.13;89.50;95238.28;5116693;28;20484;-61
2022/11/17 08:54:59;;;;;;;18.58;10.05;;;;;;;11.16;89.76;95237.25;5116593;28;20097;-62
2022/11/17 08:57:26;;;;;;;18.08;8.68;;;;;;;11.15;90.21;95241.66;5116655;28;20053;-62
2022/11/17 08:59:54;;;;;;;14.98;8.82;;;;;;;11.21;90.24;95240.44;5116707;28;20126;-62
2022/11/17 09:02:22;;;;;;;13.18;9.30;;;;;;;11.24;90.17;95246.34;5116414;28;20130;-62
2022/11/17 09:04:50;;;;;;;12.57;7.65;;;;;;;11.25;89.98;95234.94;5116680;28;20043;-62
2022/11/17 09:07:17;;;;;;;13.73;8.65;;;;;;;11.30;89.78;95239.03;5116431;28;20052;-62
2022/11/17 09:09:48;;;;;;;14.15;8.90;;;;;;;11.32;89.66;95240.63;5116368;28;20043;-61
2022/11/17 09:12:15;;;;;;;;;;;;;;;11.37;89.57;95243.81;5116607;28;20057;-62
2022/11/17 09:14:42;;;;;;;12.02;7.63;;;;;;;11.39;89.65;95243.72;5116163;28;19926;-62
2022/11/17 09:17:10;;;;;;;19.27;9.07;;;;;;;11.43;89.69;95246.97;5116247;28;20079;-62
2022/11/17 09:19:38;;;;;;;16.52;9.52;;;;;;;11.42;89.51;95248.75;5116226;28;20066;-62
2022/11/17 09:22:06;;;;;;;15.43;9.90;;;;;;;11.42;89.57;95248.75;5116153;28;20123;-62
2022/11/17 09:24:34;;;;;;;14.32;8.57;;;;;;;11.39;89.28;95256.81;5116235;28;20593;-61
2022/11/17 09:27:03;;;;;;;16.25;9.45;;;;;;;11.35;88.89;95248.28;5116000;28;20122;-62
2022/11/17 09:29:30;;;;;;;17.65;9.35;;;;;;;11.42;88.72;95266.25;5115851;28;20051;-61
2022/11/17 09:31:57;;;;;;;14.70;9.40;;;;;;;11.38;88.69;95253.34;5116047;28;20134;-62
2022/11/17 09:34:25;;;;;;;15.30;8.70;;;;;;;11.40;88.46;95249.78;5115861;28;20097;-62
2022/11/17 09:36:53;;;;;;;16.60;9.55;;;;;;;11.42;88.51;95251.38;5115675;28;20481;-62
2022/11/17 09:39:22;;;;;;;15.40;9.48;;;;;;;11.48;88.39;95252.78;5115423;28;20087;-62
2022/11/17 09:41:50;;;;;;;15.60;9.55;;;;;;;11.53;88.27;95255.09;5115707;28;20055;-62
2022/11/17 09:44:38;;;;;;;13.40;9.43;;;;;;;11.57;87.93;95252.22;5115691;28;20082;-62
2022/11/17 09:47:14;;;;;;;13.10;9.07;;;;;;;11.57;87.89;95249.59;5115448;28;20397;-62
2022/11/17 09:49:49;;;;;;;15.65;8.85;;;;;;;11.58;88.04;95237.31;5115510;28;20054;-62
2022/11/17 09:52:26;;;;;;;14.30;9.50;;;;;;;11.58;88.16;95219.84;5115319;28;20048;-62
2022/11/17 09:54:57;;;;;;;17.48;9.52;;;;;;;11.63;88.14;95232.63;5115376;28;20062;-61
2022/11/17 09:57:36;;;;;;;16.02;8.73;;;;;;;11.65;87.90;95222.06;5115311;28;20485;-62
2022/11/17 10:00:11;;;;;;;15.02;8.88;;;;;;;11.67;87.88;95212.31;5114969;28;20133;-61
2022/11/17 10:02:38;;;;;;;12.50;9.52;;;;;;;11.73;87.97;95209.31;5115327;28;20508;-62
2022/11/17 10:05:08;;;;;;;16.02;9.70;;;;;;;11.78;87.83;95198.53;5115408;28;20568;-62
2022/11/17 10:07:47;;;;;;;20.15;10.20;;;;;;;11.82;87.55;95192.16;5115217;28;20040;-62
2022/11/17 10:10:20;;;;;;;16.42;9.95;;;;;;;11.85;87.28;95176.25;5115149;28;20040;-62
2022/11/17 10:12:53;;;;;;;18.17;12.02;;;;;;;11.86;87.29;95173.53;5115162;28;20092;-62
2022/11/17 10:15:28;;;;;;;25.02;13.68;;;;;;;11.91;87.00;95169.75;5115046;28;20500;-62
2022/11/17 10:17:55;;;;;;;21.80;13.45;;;;;;;11.86;87.03;95165.66;5115065;28;20544;-61
2022/11/17 10:20:23;;;;;;;19.23;11.98;;;;;;;11.86;87.21;95170.91;5114878;28;20044;-62
2022/11/17 10:22:53;;;;;;;19.70;11.38;;;;;;;11.90;86.70;95174.19;5115059;28;20496;-62
2022/11/17 10:25:23;;;;;;;18.60;11.30;;;;;;;11.91;86.21;95181.09;5114801;28;20051;-62
2022/11/17 10:27:53;;;;;;;15.68;9.63;;;;;;;11.94;85.96;95178.28;5114862;28;20051;-61
2022/11/17 10:30:24;;;;;;;15.98;11.07;;;;;;;11.91;86.53;95175.84;5114822;28;20044;-62
2022/11/17 10:32:52;;;;;;;20.38;10.93;;;;;;;11.90;86.72;95174.19;5114738;28;20074;-61
2022/11/17 10:35:23;;;;;;;17.63;11.52;;;;;;;11.87;87.25;95162.09;5114901;28;20055;-62
2022/11/17 10:37:57;;;;;;;20.58;12.07;;;;;;;11.85;86.84;95158.75;5114701;28;20079;-61
2022/11/17 10:40:26;;;;;;;18.73;11.00;;;;;;;11.88;86.62;95161.19;5114306;28;20044;-62
2022/11/17 10:43:21;;;;;;;16.83;9.55;;;;;;;11.88;86.90;95171.66;5114843;28;20044;-61
2022/11/17 10:45:51;;;;;;;13.60;9.50;;;;;;;11.88;87.40;95174.28;5112395;28;20100;-62
2022/11/17 10:48:25;;;;;;;;;;;;;;;11.96;87.74;95186.88;5114768;28;20080;-62
2022/11/17 10:50:56;;;;;;;17.13;8.65;;;;;;;12.04;87.72;95201.25;5114266;28;20277;-62
2022/11/17 10:53:27;;;;;;;;;;;;;;;12.05;87.49;95198.53;5114618;28;20047;-62
2022/11/17 10:56:02;;;;;;;17.42;10.07;;;;;;;12.07;87.32;95188.00;5114527;28;19968;-61
2022/11/17 10:58:56;;;;;;;14.65;9.30;;;;;;;12.09;86.95;95181.69;5114150;28;20055;-61
2022/11/17 11:01:33;;;;;;;14.18;8.70;;;;;;;12.23;87.74;95185.19;5114256;28;20065;-61
2022/11/17 11:04:28;;;;;;;13.70;9.05;;;;;;;12.39;87.75;95192.88;5114138;28;20105;-61
2022/11/17 11:07:15;;;;;;;9.37;5.50;;;;;;;12.44;88.04;95180.31;5114044;28;20408;-61
2022/11/17 11:09:54;;;;;;;8.38;5.53;;;;;;;12.41;87.72;95180.50;5113921;28;20048;-61
2022/11/17 11:12:33;;;;;;;6.65;4.80;;;;;;;12.47;87.95;95182.72;5113156;28;20069;-62
2022/11/17 11:15:02;;;;;;;7.72;4.75;;;;;;;12.60;86.93;95177.47;5113962;28;20509;-62
2022/11/17 11:17:30;;;;;;;8.50;5.10;;;;;;;12.67;86.78;95179.69;5114169;28;20044;-61
2022/11/17 11:19:57;;;;;;;6.28;5.03;;;;;;;12.69;87.72;95175.16;5113913;28;20051;-62
2022/11/17 11:22:31;;;;;;;5.28;4.28;;;;;;;12.69;87.33;95172.53;5113765;28;20134;-61
2022/11/17 11:25:19;;;;;;;9.57;5.68;;;;;;;12.73;87.11;95164.34;5114123;28;20043;-62
2022/11/17 11:28:00;;;;;;;9.02;5.15;;;;;;;12.73;86.77;95166.13;5111475;28;20379;-62
2022/11/17 11:30:31;;;;;;;8.52;4.68;;;;;;;12.78;86.22;95179.78;5113883;28;20101;-62
2022/11/17 11:33:12;;;;;;;5.75;4.53;;;;;;;12.80;85.39;95180.53;5113588;28;20051;-62
2022/11/17 11:35:57;;;;;;;9.63;5.30;;;;;;;12.91;84.90;95171.09;5113772;28;20047;-62
2022/11/17 11:38:38;;;;;;;7.22;5.07;;;;;;;13.02;84.27;95169.38;5113752;28;20122;-62
2022/11/17 11:41:26;;;;;;;8.45;5.78;;;;;;;13.19;83.69;95174.41;5113577;28;20043;-62
2022/11/17 11:44:13;;;;;;;7.60;5.57;;;;;;;13.33;82.46;95174.25;5113594;28;20047;-62
2022/11/17 11:46:49;;;;;;;6.47;4.82;;;;;;;13.44;82.61;95172.66;5113730;28;20051;-62
2022/11/17 11:49:26;;;;;;;6.15;4.43;;;;;;;13.46;82.99;95178.63;5113544;28;20043;-62
2022/11/17 11:51:54;;;;;;;6.82;4.45;;;;;;;13.48;83.76;95174.09;5113672;28;20079;-62
2022/11/17 11:54:32;;;;;;;7.18;4.47;;;;;;;13.56;83.40;95169.19;5113361;28;20134;-62
2022/11/17 11:57:02;;;;;;;8.65;4.53;;;;;;;13.44;82.02;95157.75;5113417;28;20489;-62
2022/11/17 11:59:41;;;;;;;6.20;3.95;;;;;;;13.37;81.27;95161.75;5113459;28;20424;-61
2022/11/17 12:02:24;;;;;;;6.57;3.97;;;;;;;13.43;82.83;95166.56;5113454;28;20054;-62
2022/11/17 12:05:00;;;;;;;6.45;4.35;;;;;;;13.48;83.37;95167.06;5113426;28;20055;-62
2022/11/17 12:07:38;;;;;;;7.05;4.95;;;;;;;13.44;83.14;95167.41;5113473;28;20485;-62
2022/11/17 12:10:13;;;;;;;10.60;5.13;;;;;;;13.58;81.08;95169.06;5113443;28;20051;-62
2022/11/17 12:12:46;;;;;;;7.60;4.65;;;;;;;13.67;82.14;95167.56;5113165;28;20058;-62
2022/11/17 12:15:36;;;;;;;8.38;5.05;;;;;;;13.81;82.11;95170.03;5113384;28;20047;-62
2022/11/17 12:18:07;;;;;;;6.25;4.35;;;;;;;13.81;79.43;95163.94;5113483;28;20083;-62
2022/11/17 12:20:56;;;;;;;7.13;4.55;;;;;;;13.80;78.74;95162.25;5113464;28;20126;-62
2022/11/17 12:23:38;;;;;;;7.38;4.28;;;;;;;13.76;78.79;95161.66;5114390;28;20055;-61